Time;durP1;ratioP1;P1;durP2;ratioP2;P2;SDS_P1;SDS_P2;PMS_P1;PMS_P2;Temp;Humidity;BMP_temperature;BMP_pressure;BME280_temperature;BME280_humidity;BME280_pressure;Samples;Min_cycle;Max_cycle;Signal;HPM_P1;HPM_P2
2022/08/04 00:01:09;;;;;;;4.18;2.42;;;18.70;99.90;;;;;;4897645;29;20099;-37
2022/08/04 00:04:15;;;;;;;3.50;2.30;;;18.80;99.90;;;;;;4902248;29;20052;-39
2022/08/04 00:07:04;;;;;;;4.53;2.80;;;18.80;99.90;;;;;;4902585;29;20140;-38
2022/08/04 00:09:42;;;;;;;3.38;2.35;;;18.70;99.90;;;;;;4901987;29;20036;-40
2022/08/04 00:12:10;;;;;;;3.42;2.45;;;18.70;99.90;;;;;;4902447;29;20028;-39
2022/08/04 00:14:40;;;;;;;1.90;1.77;;;18.70;99.90;;;;;;4901594;29;20043;-39
2022/08/04 00:17:07;;;;;;;3.47;2.05;;;18.70;99.90;;;;;;4903635;29;20027;-40
2022/08/04 00:19:40;;;;;;;3.92;2.50;;;18.70;99.90;;;;;;4912067;29;22173;-38
2022/08/04 00:22:09;;;;;;;3.17;2.40;;;18.70;99.90;;;;;;4922167;29;20474;-37
2022/08/04 00:24:36;;;;;;;3.03;2.30;;;18.60;99.90;;;;;;4920628;29;20042;-39
2022/08/04 00:27:02;;;;;;;2.25;2.05;;;18.30;99.90;;;;;;4921149;29;20190;-40
2022/08/04 00:29:28;;;;;;;4.68;2.00;;;18.30;99.90;;;;;;4920879;29;20087;-40
2022/08/04 00:31:55;;;;;;;2.47;2.25;;;18.30;99.90;;;;;;4918844;28;20493;-37
2022/08/04 00:34:24;;;;;;;4.45;2.92;;;18.30;99.90;;;;;;4919509;29;20503;-37
2022/08/04 00:36:52;;;;;;;4.82;2.38;;;18.20;99.90;;;;;;4920462;29;20083;-40
2022/08/04 00:39:19;;;;;;;2.20;2.05;;;18.30;99.90;;;;;;4923440;29;20385;-40
2022/08/04 00:42:20;;;;;;;2.97;2.00;;;18.40;99.90;;;;;;4925281;29;20118;-37
2022/08/04 00:45:23;;;;;;;3.72;2.47;;;18.30;99.90;;;;;;4886346;29;20057;-39
2022/08/04 00:48:25;;;;;;;2.42;2.22;;;18.20;99.90;;;;;;4923116;29;20027;-38
2022/08/04 00:51:14;;;;;;;3.22;2.10;;;18.10;99.90;;;;;;4924369;29;20776;-40
2022/08/04 00:53:48;;;;;;;3.58;2.10;;;18.20;99.90;;;;;;4923435;29;20031;-37
2022/08/04 00:56:33;;;;;;;2.67;2.15;;;18.10;99.90;;;;;;4923930;29;20122;-38
2022/08/04 00:59:20;;;;;;;2.70;2.15;;;18.10;99.90;;;;;;4924897;29;20050;-39
2022/08/04 01:02:20;;;;;;;2.22;2.03;;;18.10;99.90;;;;;;4924713;28;20060;-39
2022/08/04 01:05:21;;;;;;;2.30;2.10;;;18.20;99.90;;;;;;4909278;29;20409;-38
2022/08/04 01:08:05;;;;;;;2.45;1.85;;;18.20;99.90;;;;;;4924094;29;20042;-40
2022/08/04 01:10:45;;;;;;;3.40;2.38;;;18.10;99.90;;;;;;4942388;29;20031;-36
2022/08/04 01:13:44;;;;;;;3.13;2.05;;;18.10;99.90;;;;;;4927012;29;20035;-36
2022/08/04 01:16:15;;;;;;;3.53;2.13;;;18.00;99.90;;;;;;4934102;29;20503;-38
2022/08/04 01:18:55;;;;;;;4.55;2.72;;;18.00;99.90;;;;;;4935252;29;21293;-36
2022/08/04 01:22:01;;;;;;;2.78;2.10;;;18.00;99.90;;;;;;4938793;29;20038;-39
2022/08/04 01:25:04;;;;;;;3.17;2.17;;;17.80;99.90;;;;;;4929991;29;20031;-39
2022/08/04 01:27:51;;;;;;;2.20;2.00;;;17.60;99.90;;;;;;4935150;29;20032;-38
2022/08/04 01:30:18;;;;;;;4.85;2.20;;;16.90;99.90;;;;;;4947725;28;20112;-36
2022/08/04 01:32:59;;;;;;;2.50;1.90;;;16.60;99.90;;;;;;4929930;29;20401;-38
2022/08/04 01:35:51;;;;;;;2.58;1.83;;;16.80;99.90;;;;;;4930218;29;20689;-37
2022/08/04 01:38:34;;;;;;;3.35;2.58;;;16.90;99.90;;;;;;4937835;29;20690;-39
2022/08/04 01:41:03;;;;;;;2.38;2.17;;;16.90;99.90;;;;;;4944138;29;20046;-40
2022/08/04 01:43:32;;;;;;;2.47;2.28;;;16.90;99.90;;;;;;4926677;29;20040;-38
2022/08/04 01:45:59;;;;;;;;;;;16.90;99.90;;;;;;4931864;29;20027;-39
2022/08/04 01:48:26;;;;;;;3.37;2.00;;;17.00;99.90;;;;;;4934954;29;19914;-36
2022/08/04 01:50:56;;;;;;;2.53;2.20;;;17.20;99.90;;;;;;4926886;29;20028;-39
2022/08/04 01:53:34;;;;;;;2.80;2.50;;;17.20;99.90;;;;;;4919212;29;20080;-37
2022/08/04 01:56:00;;;;;;;;;;;17.30;99.90;;;;;;4931491;29;20175;-37
2022/08/04 01:58:28;;;;;;;3.20;2.50;;;17.30;99.90;;;;;;4927212;29;20416;-39
2022/08/04 02:01:03;;;;;;;2.40;2.20;;;17.30;99.90;;;;;;4925045;29;20759;-39
2022/08/04 02:03:31;;;;;;;2.58;2.20;;;17.30;99.90;;;;;;4932437;29;20028;-39
2022/08/04 02:06:42;;;;;;;2.60;2.40;;;17.30;99.90;;;;;;4935547;29;20488;-40
2022/08/04 02:09:37;;;;;;;3.10;2.20;;;17.30;99.90;;;;;;4897063;29;20050;-39
2022/08/04 02:12:10;;;;;;;1.80;1.70;;;17.30;99.90;;;;;;4897951;29;20032;-36
2022/08/04 02:15:12;;;;;;;2.35;2.13;;;17.30;99.90;;;;;;4898768;29;20629;-39
2022/08/04 02:17:59;;;;;;;2.58;2.00;;;17.40;99.90;;;;;;4884245;29;20035;-36
2022/08/04 02:20:45;;;;;;;4.13;2.17;;;17.40;99.90;;;;;;4926045;29;20509;-39
2022/08/04 02:23:22;;;;;;;4.72;2.70;;;17.30;99.90;;;;;;4937076;29;20027;-39
2022/08/04 02:25:57;;;;;;;3.25;2.33;;;17.20;99.90;;;;;;4939463;29;20038;-39
2022/08/04 02:28:45;;;;;;;2.35;2.15;;;17.30;99.90;;;;;;4939459;29;20050;-40
2022/08/04 02:31:25;;;;;;;2.40;2.20;;;17.30;99.90;;;;;;4935628;29;20040;-39
2022/08/04 02:34:16;;;;;;;2.58;1.98;;;17.20;99.90;;;;;;4935380;29;20042;-38
2022/08/04 02:36:48;;;;;;;2.30;2.10;;;17.30;99.90;;;;;;4938313;29;20032;-40
2022/08/04 02:39:19;;;;;;;2.85;2.25;;;17.30;99.90;;;;;;4933071;29;20095;-38
2022/08/04 02:41:47;;;;;;;2.90;2.22;;;17.30;99.90;;;;;;4932265;29;20074;-38
2022/08/04 02:44:13;;;;;;;;;;;17.20;99.90;;;;;;4929876;29;20036;-38
2022/08/04 02:46:41;;;;;;;2.38;2.17;;;17.20;99.90;;;;;;4933253;29;20017;-40
2022/08/04 02:49:08;;;;;;;4.10;2.50;;;17.20;99.90;;;;;;4934451;29;20043;-40
2022/08/04 02:51:41;;;;;;;3.17;2.60;;;17.20;99.90;;;;;;4938119;29;20106;-40
2022/08/04 02:54:07;;;;;;;4.18;2.75;;;17.20;99.90;;;;;;4928069;29;20038;-39
2022/08/04 02:56:36;;;;;;;2.42;2.22;;;17.20;99.90;;;;;;4931673;29;20032;-39
2022/08/04 02:59:05;;;;;;;2.42;2.22;;;17.10;99.90;;;;;;4926975;29;20032;-38
2022/08/04 03:01:34;;;;;;;3.10;2.70;;;17.00;99.90;;;;;;4933107;29;20044;-40
2022/08/04 03:04:35;;;;;;;3.95;2.35;;;17.00;99.90;;;;;;4937165;29;20059;-37
2022/08/04 03:07:37;;;;;;;2.58;2.20;;;17.00;99.90;;;;;;4949970;29;20248;-37
2022/08/04 03:10:24;;;;;;;3.75;2.10;;;17.00;99.90;;;;;;4934054;29;20028;-38
2022/08/04 03:13:26;;;;;;;2.75;2.28;;;17.10;99.90;;;;;;4936673;29;20098;-40
2022/08/04 03:16:41;;;;;;;3.25;2.40;;;17.00;99.90;;;;;;4933831;29;20031;-37
2022/08/04 03:19:44;;;;;;;4.93;2.83;;;17.00;99.90;;;;;;4919361;29;20047;-36
2022/08/04 03:22:57;;;;;;;3.03;2.50;;;17.00;99.90;;;;;;4932048;29;20120;-37
2022/08/04 03:25:55;;;;;;;2.30;2.10;;;17.00;99.90;;;;;;4936322;29;20110;-36
2022/08/04 03:28:42;;;;;;;;;;;16.90;99.90;;;;;;4933342;29;20024;-38
2022/08/04 03:31:23;;;;;;;3.63;2.53;;;16.90;99.90;;;;;;4947335;28;19915;-37
2022/08/04 03:34:14;;;;;;;2.03;1.92;;;16.80;99.90;;;;;;4936038;29;20401;-38
2022/08/04 03:37:19;;;;;;;1.70;1.60;;;16.30;99.90;;;;;;4933562;29;20020;-40
2022/08/04 03:40:05;;;;;;;1.63;1.52;;;16.20;99.90;;;;;;4927770;29;20043;-37
2022/08/04 03:42:43;;;;;;;1.60;1.50;;;16.30;99.90;;;;;;4933885;29;20032;-39
2022/08/04 03:45:47;;;;;;;1.50;1.40;;;16.10;99.90;;;;;;4932996;29;20028;-38
2022/08/04 03:48:31;;;;;;;1.50;1.40;;;16.20;99.90;;;;;;4935250;29;20043;-37
2022/08/04 03:54:27;;;;;;;4.10;2.65;;;16.20;99.90;;;;;;4926284;29;20070;-36
2022/08/04 03:57:08;;;;;;;3.97;2.55;;;16.10;99.90;;;;;;4921926;29;20556;-38
2022/08/04 03:59:59;;;;;;;3.00;2.80;;;16.10;99.90;;;;;;4925873;29;20042;-36
2022/08/04 04:03:05;;;;;;;3.00;2.70;;;16.10;99.90;;;;;;4923192;29;20044;-39
2022/08/04 04:05:34;;;;;;;3.80;2.63;;;16.10;99.90;;;;;;4943092;29;20032;-39
2022/08/04 04:08:19;;;;;;;3.00;2.70;;;16.10;99.90;;;;;;4936960;29;20024;-36
2022/08/04 04:11:04;;;;;;;2.70;2.50;;;16.20;99.90;;;;;;4926125;29;20462;-39
2022/08/04 04:14:20;;;;;;;2.38;2.17;;;16.10;99.90;;;;;;4935779;29;20525;-37
2022/08/04 04:17:07;;;;;;;2.55;2.35;;;16.00;99.90;;;;;;4927707;29;20035;-37
2022/08/04 04:20:34;;;;;;;6.60;2.83;;;15.90;99.90;;;;;;4925374;29;20044;-37
2022/08/04 04:23:19;;;;;;;;;;;16.10;99.90;;;;;;4850462;29;20054;-38
2022/08/04 04:26:23;;;;;;;4.15;2.50;;;16.20;99.90;;;;;;4848919;29;19912;-36
2022/08/04 04:28:57;;;;;;;3.25;2.13;;;16.10;99.90;;;;;;4885899;29;20044;-39
2022/08/04 04:31:44;;;;;;;2.53;2.30;;;16.20;99.90;;;;;;4903742;29;20119;-36
2022/08/04 04:34:34;;;;;;;3.20;2.42;;;16.30;99.90;;;;;;4891191;29;20078;-38
2022/08/04 04:37:19;;;;;;;3.28;2.58;;;16.00;99.90;;;;;;4901622;29;20083;-39
2022/08/04 04:40:03;;;;;;;2.83;2.47;;;16.10;99.90;;;;;;4881818;29;20127;-37
2022/08/04 04:42:38;;;;;;;3.90;2.85;;;16.20;99.90;;;;;;4909855;29;20048;-39
2022/08/04 04:45:47;;;;;;;3.95;2.90;;;16.30;99.90;;;;;;4897643;29;20075;-38
2022/08/04 04:48:40;;;;;;;3.63;2.80;;;16.50;99.90;;;;;;4893173;29;20078;-37
2022/08/04 04:51:30;;;;;;;2.90;2.40;;;16.60;99.90;;;;;;4911994;29;20024;-37
2022/08/04 04:54:57;;;;;;;2.95;2.65;;;16.70;99.90;;;;;;4907762;29;20039;-37
2022/08/04 04:57:46;;;;;;;4.17;2.73;;;16.80;99.90;;;;;;4910363;29;20036;-38
2022/08/04 05:00:43;;;;;;;2.75;2.53;;;16.70;99.90;;;;;;4914921;29;20284;-40
2022/08/04 05:03:38;;;;;;;5.40;2.78;;;16.60;99.90;;;;;;4909727;29;20036;-40
2022/08/04 05:07:16;;;;;;;3.35;2.85;;;16.60;99.90;;;;;;4883496;29;20118;-40
2022/08/04 05:10:19;;;;;;;3.25;2.85;;;17.00;99.90;;;;;;4884640;29;20051;-40
2022/08/04 05:13:30;;;;;;;3.22;2.92;;;17.10;99.90;;;;;;4912195;29;20048;-36
2022/08/04 05:16:12;;;;;;;3.00;2.70;;;17.20;99.90;;;;;;4901376;29;20255;-38
2022/08/04 05:18:42;;;;;;;3.15;2.67;;;17.30;99.90;;;;;;4911818;29;20409;-38
2022/08/04 05:21:42;;;;;;;3.42;3.00;;;17.40;99.90;;;;;;4906263;29;20364;-35
2022/08/04 05:24:13;;;;;;;2.90;2.70;;;17.50;99.90;;;;;;4897780;29;20087;-37
2022/08/04 05:26:46;;;;;;;3.78;3.00;;;17.60;99.90;;;;;;4895169;29;20131;-40
2022/08/04 05:29:28;;;;;;;5.38;2.95;;;17.70;99.90;;;;;;4897179;29;20037;-39
2022/08/04 05:31:56;;;;;;;4.47;3.08;;;17.80;99.90;;;;;;4911359;29;20043;-37
2022/08/04 05:34:39;;;;;;;3.55;3.20;;;17.80;99.90;;;;;;4912904;29;20498;-39
2022/08/04 05:37:14;;;;;;;3.05;2.80;;;17.90;99.90;;;;;;4895764;29;20063;-36
2022/08/04 05:39:52;;;;;;;4.03;3.17;;;18.10;99.90;;;;;;4893127;29;20084;-38
2022/08/04 05:42:20;;;;;;;3.10;2.87;;;18.30;99.90;;;;;;4896003;29;20485;-35
2022/08/04 05:44:46;;;;;;;3.25;2.85;;;18.50;99.90;;;;;;4897373;29;20409;-39
2022/08/04 05:47:13;;;;;;;8.75;3.15;;;18.50;99.90;;;;;;4881184;29;20478;-37
2022/08/04 05:49:40;;;;;;;3.60;2.70;;;18.70;99.90;;;;;;4896874;29;20328;-37
2022/08/04 05:52:08;;;;;;;3.75;2.75;;;18.90;99.90;;;;;;4909382;29;20083;-37
2022/08/04 05:54:36;;;;;;;3.15;2.85;;;19.10;99.90;;;;;;4894536;29;20490;-38
2022/08/04 05:57:04;;;;;;;4.20;3.00;;;19.20;99.90;;;;;;4894624;29;20035;-36
2022/08/04 05:59:30;;;;;;;;;;;19.30;99.90;;;;;;4911040;29;20036;-36
2022/08/04 06:01:58;;;;;;;3.65;3.08;;;19.50;99.90;;;;;;4896699;29;20401;-39
2022/08/04 06:04:31;;;;;;;4.85;3.08;;;19.70;99.90;;;;;;4919688;29;20509;-39
2022/08/04 06:07:03;;;;;;;3.55;3.25;;;19.50;99.90;;;;;;4920166;29;20115;-39
2022/08/04 06:09:33;;;;;;;3.72;3.00;;;19.50;99.90;;;;;;4904493;29;20031;-36
2022/08/04 06:12:16;;;;;;;3.90;3.45;;;19.60;99.90;;;;;;4920926;29;20094;-35
2022/08/04 06:14:48;;;;;;;3.90;3.60;;;19.90;99.90;;;;;;4903033;29;20049;-35
2022/08/04 06:17:32;;;;;;;4.18;3.67;;;19.90;99.90;;;;;;4919616;29;20036;-37
2022/08/04 06:20:00;;;;;;;5.72;3.72;;;20.00;99.90;;;;;;4629762;29;8718930;-39
2022/08/04 06:22:42;;;;;;;4.68;3.40;;;20.20;99.90;;;;;;4940282;29;20482;-35
2022/08/04 06:25:15;;;;;;;4.70;3.10;;;20.40;99.90;;;;;;4936427;29;20028;-39
2022/08/04 06:27:49;;;;;;;4.97;3.63;;;20.70;99.90;;;;;;4940161;29;20067;-39
2022/08/04 06:30:18;;;;;;;3.97;3.10;;;20.90;99.90;;;;;;4954517;28;20027;-39
2022/08/04 06:32:55;;;;;;;5.55;3.75;;;21.10;99.90;;;;;;4940324;29;20024;-39
2022/08/04 06:35:23;;;;;;;4.73;3.37;;;21.30;99.90;;;;;;4938930;29;20401;-37
2022/08/04 06:37:56;;;;;;;3.42;3.13;;;21.50;99.90;;;;;;4925261;29;20110;-37
2022/08/04 06:40:26;;;;;;;3.42;3.13;;;21.70;99.90;;;;;;4942583;29;20091;-36
2022/08/04 06:42:57;;;;;;;4.30;3.67;;;21.80;98.30;;;;;;4940936;29;20034;-39
2022/08/04 06:45:25;;;;;;;3.95;3.55;;;22.00;99.00;;;;;;4940205;29;20039;-39
2022/08/04 06:47:53;;;;;;;4.07;3.55;;;22.20;98.50;;;;;;4938806;29;20015;-39
2022/08/04 06:50:23;;;;;;;3.83;3.40;;;22.30;97.50;;;;;;4937191;29;20023;-37
2022/08/04 06:52:49;;;;;;;4.05;3.40;;;22.40;97.20;;;;;;4952246;29;20059;-38
2022/08/04 06:55:15;;;;;;;5.80;3.30;;;22.40;96.90;;;;;;4936996;29;20087;-37
2022/08/04 06:57:46;;;;;;;3.50;3.20;;;22.50;97.00;;;;;;4937239;29;20047;-39
2022/08/04 07:00:16;;;;;;;3.65;3.35;;;22.50;95.70;;;;;;4939457;29;20079;-38
2022/08/04 07:02:47;;;;;;;4.40;3.22;;;22.80;97.10;;;;;;4936680;29;20031;-38
2022/08/04 07:05:36;;;;;;;4.57;3.53;;;23.20;95.80;;;;;;4936038;29;20074;-37
2022/08/04 07:08:14;;;;;;;3.33;3.03;;;23.30;95.40;;;;;;4936469;29;20386;-38
2022/08/04 07:10:41;;;;;;;3.55;3.25;;;23.20;95.60;;;;;;4936888;29;20553;-37
2022/08/04 07:13:09;;;;;;;4.57;3.38;;;23.30;97.80;;;;;;4934994;29;20036;-39
2022/08/04 07:15:37;;;;;;;5.85;3.50;;;23.50;97.00;;;;;;4937152;29;20020;-36
2022/08/04 07:18:04;;;;;;;4.15;3.53;;;23.60;97.20;;;;;;4936051;29;20024;-40
2022/08/04 07:20:32;;;;;;;6.37;3.10;;;23.60;96.30;;;;;;4931316;29;20122;-40
2022/08/04 07:23:00;;;;;;;3.55;3.25;;;23.70;95.50;;;;;;4930394;29;20299;-38
2022/08/04 07:25:26;;;;;;;3.88;3.45;;;24.00;96.00;;;;;;4936759;29;20058;-38
2022/08/04 07:27:56;;;;;;;5.93;3.33;;;24.10;93.60;;;;;;4935704;29;20503;-38
2022/08/04 07:30:26;;;;;;;3.92;3.53;;;24.10;93.00;;;;;;4936891;28;20110;-37
2022/08/04 07:32:55;;;;;;;5.65;3.33;;;24.40;94.70;;;;;;4940758;29;20035;-36
2022/08/04 07:35:24;;;;;;;3.38;3.08;;;24.40;93.70;;;;;;4919204;29;20036;-39
2022/08/04 07:37:52;;;;;;;4.75;3.42;;;24.60;92.60;;;;;;4936642;29;20398;-39
2022/08/04 07:40:19;;;;;;;2.80;2.60;;;24.70;92.40;;;;;;4936361;29;20032;-40
2022/08/04 07:42:46;;;;;;;;;;;24.90;91.80;;;;;;4929990;29;20042;-40
2022/08/04 07:45:17;;;;;;;4.20;3.23;;;25.00;89.20;;;;;;4935957;29;20332;-37
2022/08/04 07:47:45;;;;;;;4.32;3.42;;;25.00;91.10;;;;;;4934791;29;20036;-39
2022/08/04 07:50:11;;;;;;;5.13;3.20;;;25.20;90.40;;;;;;4934963;29;20087;-39
2022/08/04 07:52:38;;;;;;;6.85;3.30;;;25.30;89.50;;;;;;4934632;29;20151;-37
2022/08/04 07:55:06;;;;;;;3.40;3.10;;;25.40;88.80;;;;;;4935767;29;20036;-38
2022/08/04 07:57:31;;;;;;;3.17;2.88;;;25.50;90.00;;;;;;4935387;29;20469;-38
2022/08/04 07:59:57;;;;;;;4.82;3.00;;;26.00;86.50;;;;;;4937337;29;20016;-39
2022/08/04 08:02:24;;;;;;;4.13;3.20;;;26.30;83.60;;;;;;4934999;28;20031;-37
2022/08/04 08:04:50;;;;;;;5.37;3.10;;;26.70;82.10;;;;;;4937149;29;20103;-38
2022/08/04 08:07:34;;;;;;;2.95;2.67;;;27.00;79.30;;;;;;4933091;29;20087;-37
2022/08/04 08:10:12;;;;;;;3.10;2.80;;;27.30;75.50;;;;;;4931366;29;20036;-39
2022/08/04 08:12:41;;;;;;;4.10;3.17;;;27.60;73.00;;;;;;4934135;29;20103;-38
2022/08/04 08:15:27;;;;;;;4.47;2.85;;;27.60;72.50;;;;;;4937563;29;20122;-37
2022/08/04 08:17:53;;;;;;;3.05;2.80;;;27.30;72.30;;;;;;4923534;29;20151;-38
2022/08/04 08:20:21;;;;;;;3.58;2.97;;;27.30;74.10;;;;;;4922248;29;20506;-39
2022/08/04 08:22:48;;;;;;;3.25;2.95;;;27.30;70.80;;;;;;4902720;29;20024;-35
2022/08/04 08:25:16;;;;;;;4.10;3.08;;;27.30;69.90;;;;;;4902560;29;20028;-36
2022/08/04 08:27:43;;;;;;;3.20;2.90;;;27.40;65.60;;;;;;4918919;29;20028;-36
2022/08/04 08:30:12;;;;;;;2.93;2.63;;;27.60;65.40;;;;;;4918131;29;20023;-38
2022/08/04 08:32:39;;;;;;;3.30;2.63;;;27.70;65.20;;;;;;4901313;29;20710;-36
2022/08/04 08:35:10;;;;;;;4.40;2.83;;;27.90;65.00;;;;;;4907638;29;20095;-38
2022/08/04 08:37:49;;;;;;;4.15;2.90;;;27.90;65.20;;;;;;4919103;29;20032;-35
2022/08/04 08:40:23;;;;;;;4.50;2.90;;;27.90;63.60;;;;;;4885999;29;20115;-37
2022/08/04 08:43:10;;;;;;;2.83;2.60;;;28.10;62.00;;;;;;4918740;29;20020;-35
2022/08/04 08:45:42;;;;;;;;;;;28.20;61.50;;;;;;4911375;29;20036;-38
2022/08/04 08:48:40;;;;;;;3.13;2.65;;;28.40;63.70;;;;;;4903041;29;19911;-37
2022/08/04 08:51:51;;;;;;;3.33;3.03;;;28.40;64.00;;;;;;4915107;29;20053;-36
2022/08/04 08:55:00;;;;;;;3.60;2.85;;;28.60;59.90;;;;;;4918332;29;20036;-36
2022/08/04 08:57:35;;;;;;;2.92;2.60;;;28.80;54.60;;;;;;4899361;29;20035;-36
2022/08/04 09:00:22;;;;;;;3.30;2.40;;;29.00;56.20;;;;;;4924594;29;20753;-38
2022/08/04 09:02:48;;;;;;;;;;;29.70;55.90;;;;;;4923005;29;20435;-37
2022/08/04 09:05:33;;;;;;;3.90;2.40;;;29.90;52.10;;;;;;4902246;29;19915;-36
2022/08/04 09:08:24;;;;;;;3.17;2.45;;;29.50;53.50;;;;;;4912434;29;20032;-35
2022/08/04 09:11:09;;;;;;;2.78;2.50;;;29.70;51.00;;;;;;4923050;29;20032;-39
2022/08/04 09:13:45;;;;;;;3.80;2.28;;;29.90;49.90;;;;;;4886024;29;20036;-35
2022/08/04 09:16:11;;;;;;;2.57;2.37;;;30.10;49.30;;;;;;4904824;29;20446;-38
2022/08/04 09:18:39;;;;;;;4.63;2.40;;;30.10;46.50;;;;;;4922933;29;20028;-38
2022/08/04 09:21:51;;;;;;;3.83;2.42;;;30.40;49.30;;;;;;4909668;29;20028;-36
2022/08/04 09:24:40;;;;;;;3.45;2.20;;;30.40;49.30;;;;;;4922529;29;20096;-36
2022/08/04 09:27:42;;;;;;;5.35;2.20;;;30.30;46.30;;;;;;4922823;29;20046;-37
2022/08/04 09:30:16;;;;;;;2.42;2.22;;;30.40;46.20;;;;;;4908401;29;20032;-35
2022/08/04 09:33:13;;;;;;;2.25;2.08;;;30.70;44.80;;;;;;4921104;29;20040;-38
2022/08/04 09:36:06;;;;;;;2.35;2.15;;;30.80;44.00;;;;;;4922291;29;20502;-36
2022/08/04 09:38:48;;;;;;;4.97;2.50;;;31.20;44.40;;;;;;4914819;29;20127;-39
2022/08/04 09:41:52;;;;;;;2.60;2.20;;;31.30;41.70;;;;;;4926388;29;20043;-39
2022/08/04 09:44:59;;;;;;;2.45;2.03;;;31.80;43.50;;;;;;4864151;29;20044;-39
2022/08/04 09:47:59;;;;;;;2.28;2.17;;;32.10;44.20;;;;;;4914613;29;20044;-37
2022/08/04 09:50:40;;;;;;;4.38;2.60;;;32.70;44.30;;;;;;4919070;29;20382;-37
2022/08/04 09:53:44;;;;;;;2.45;2.25;;;32.80;43.40;;;;;;4919248;29;20131;-36
2022/08/04 09:56:31;;;;;;;3.38;2.42;;;33.20;42.00;;;;;;4920030;29;20071;-36
2022/08/04 09:59:32;;;;;;;2.72;2.25;;;33.40;42.80;;;;;;4919991;29;20552;-36
2022/08/04 10:02:09;;;;;;;2.25;2.05;;;33.40;41.20;;;;;;4917041;29;20029;-37
2022/08/04 10:04:40;;;;;;;;;;;33.60;40.50;;;;;;4919572;29;20088;-35
2022/08/04 10:07:31;;;;;;;2.90;2.30;;;33.90;39.10;;;;;;4917536;29;19973;-35
2022/08/04 10:10:03;;;;;;;2.45;2.25;;;33.50;38.60;;;;;;4910036;29;20028;-37
2022/08/04 10:12:59;;;;;;;2.20;1.85;;;32.90;40.30;;;;;;4917380;29;20095;-37
2022/08/04 10:16:03;;;;;;;3.67;2.40;;;32.90;40.90;;;;;;4920073;29;20032;-36
2022/08/04 10:19:15;;;;;;;2.38;2.17;;;32.50;38.50;;;;;;4921020;29;20036;-36
2022/08/04 10:22:08;;;;;;;4.80;2.40;;;32.50;39.70;;;;;;4929725;29;20048;-38
2022/08/04 10:25:03;;;;;;;2.33;2.00;;;32.40;39.60;;;;;;4922177;29;20046;-36
2022/08/04 10:27:59;;;;;;;2.95;1.85;;;32.30;40.70;;;;;;4928146;29;20024;-36
2022/08/04 10:30:27;;;;;;;1.90;1.80;;;32.50;40.20;;;;;;4905433;29;20087;-38
2022/08/04 10:33:11;;;;;;;1.90;1.80;;;32.60;36.00;;;;;;4907156;29;20059;-35
2022/08/04 10:35:47;;;;;;;2.40;1.83;;;32.90;38.50;;;;;;4918900;29;20024;-37
2022/08/04 10:38:27;;;;;;;2.13;1.92;;;33.10;38.00;;;;;;4934908;29;20039;-35
2022/08/04 10:41:34;;;;;;;3.22;1.90;;;33.30;36.80;;;;;;4921363;29;20028;-39
2022/08/04 10:44:53;;;;;;;1.92;1.83;;;33.10;36.30;;;;;;4939254;29;20034;-36
2022/08/04 10:47:29;;;;;;;3.13;2.00;;;32.80;36.80;;;;;;4832756;29;20073;-37
2022/08/04 10:50:02;;;;;;;2.33;1.80;;;33.20;36.20;;;;;;4938649;29;20024;-35
2022/08/04 10:52:53;;;;;;;2.00;1.75;;;33.40;35.80;;;;;;4930216;29;20425;-35
2022/08/04 10:55:46;;;;;;;2.58;1.63;;;33.30;36.20;;;;;;4927290;29;20067;-36
2022/08/04 10:58:27;;;;;;;1.80;1.60;;;33.30;35.60;;;;;;4929896;29;20035;-39
2022/08/04 11:01:01;;;;;;;1.98;1.88;;;33.30;35.00;;;;;;4897168;29;20036;-38
2022/08/04 11:03:56;;;;;;;2.38;1.60;;;32.20;34.60;;;;;;4931557;29;20071;-37
2022/08/04 11:06:25;;;;;;;2.08;1.73;;;32.00;36.70;;;;;;4933112;29;20091;-39
2022/08/04 11:08:54;;;;;;;1.80;1.70;;;32.00;36.70;;;;;;4925460;29;20043;-37
2022/08/04 11:11:50;;;;;;;2.53;2.33;;;32.30;37.60;;;;;;4938944;29;20051;-38
2022/08/04 11:14:44;;;;;;;1.80;1.70;;;31.90;33.50;;;;;;4913470;29;20052;-37
2022/08/04 11:17:39;;;;;;;2.15;1.98;;;32.20;35.20;;;;;;4931916;29;20032;-37
2022/08/04 11:20:45;;;;;;;2.10;1.80;;;32.20;37.70;;;;;;4923895;29;20047;-39
2022/08/04 11:23:18;;;;;;;6.20;1.90;;;31.80;34.20;;;;;;4901361;29;20465;-37
2022/08/04 11:26:07;;;;;;;2.03;1.90;;;31.60;34.70;;;;;;4917898;29;20032;-36
2022/08/04 11:28:52;;;;;;;2.15;1.90;;;31.80;36.60;;;;;;4902058;29;20573;-37
2022/08/04 11:31:34;;;;;;;2.15;1.95;;;31.80;34.30;;;;;;4916611;29;20044;-39
2022/08/04 11:34:30;;;;;;;1.90;1.80;;;32.00;35.30;;;;;;4914738;29;20028;-35
2022/08/04 11:37:15;;;;;;;1.73;1.63;;;32.20;35.80;;;;;;4889299;29;20036;-38
2022/08/04 11:39:52;;;;;;;2.33;1.67;;;32.20;35.30;;;;;;4916680;29;20410;-36
2022/08/04 11:42:38;;;;;;;1.80;1.70;;;32.30;35.20;;;;;;4913109;29;20036;-35
2022/08/04 11:45:29;;;;;;;1.83;1.73;;;32.30;36.20;;;;;;4912665;29;20405;-36
2022/08/04 11:48:15;;;;;;;2.33;1.63;;;32.40;34.70;;;;;;4916499;29;20039;-39
2022/08/04 11:51:01;;;;;;;1.80;1.70;;;32.50;35.50;;;;;;4913587;29;20028;-38
2022/08/04 11:53:33;;;;;;;2.43;2.07;;;32.30;36.40;;;;;;4915359;29;20040;-35
2022/08/04 11:56:10;;;;;;;2.25;1.63;;;32.30;33.50;;;;;;4917472;29;20027;-38
2022/08/04 11:58:36;;;;;;;2.25;1.80;;;31.90;33.80;;;;;;4901329;29;20126;-37
2022/08/04 12:01:31;;;;;;;3.28;1.77;;;31.90;35.00;;;;;;4919351;29;20407;-38
2022/08/04 12:04:23;;;;;;;2.65;1.90;;;31.90;36.60;;;;;;4852922;29;20033;-36
2022/08/04 12:07:17;;;;;;;2.55;1.95;;;32.10;36.50;;;;;;4915294;29;20036;-37
2022/08/04 12:10:00;;;;;;;1.70;1.60;;;32.00;34.50;;;;;;4897226;29;20072;-38
2022/08/04 12:12:43;;;;;;;1.98;1.83;;;31.90;35.90;;;;;;4918216;29;20024;-37
2022/08/04 12:15:54;;;;;;;2.10;1.90;;;32.00;35.30;;;;;;4892594;29;20032;-37
2022/08/04 12:19:05;;;;;;;1.95;1.73;;;32.00;34.60;;;;;;4910639;29;20083;-37
2022/08/04 12:21:54;;;;;;;2.83;1.88;;;32.00;36.10;;;;;;4859475;29;20041;-36
2022/08/04 12:24:41;;;;;;;2.20;1.88;;;32.00;36.00;;;;;;4898255;29;20067;-37
2022/08/04 12:27:22;;;;;;;;;;;31.90;34.90;;;;;;4885330;29;20044;-39
2022/08/04 12:29:51;;;;;;;5.05;2.53;;;32.00;35.30;;;;;;4908670;29;19988;-39
2022/08/04 12:33:00;;;;;;;8.18;3.13;;;32.20;34.30;;;;;;4874940;29;20067;-39
2022/08/04 12:35:46;;;;;;;2.17;2.05;;;32.60;35.80;;;;;;4820871;29;20824;-38
2022/08/04 12:38:16;;;;;;;2.85;2.00;;;32.70;33.20;;;;;;4832477;29;20029;-37
2022/08/04 12:41:06;;;;;;;2.10;1.80;;;32.80;33.20;;;;;;4886637;29;20482;-37
2022/08/04 12:44:06;;;;;;;2.20;2.00;;;32.60;32.70;;;;;;4902647;29;20434;-36
2022/08/04 12:47:19;;;;;;;1.90;1.80;;;32.40;33.00;;;;;;4921010;29;20036;-38
2022/08/04 12:50:08;;;;;;;2.05;1.88;;;32.40;33.90;;;;;;4919993;29;20048;-38
2022/08/04 12:53:19;;;;;;;1.95;1.80;;;32.40;33.60;;;;;;4854100;29;20085;-39
2022/08/04 12:56:10;;;;;;;1.83;1.73;;;32.30;34.50;;;;;;4901117;29;20037;-37
2022/08/04 12:59:02;;;;;;;7.10;2.53;;;32.30;33.50;;;;;;4919653;29;20136;-36
2022/08/04 13:01:32;;;;;;;3.20;2.00;;;32.30;34.40;;;;;;4918408;29;20071;-39
2022/08/04 13:04:02;;;;;;;2.53;1.90;;;32.50;33.00;;;;;;4918326;29;20032;-36
2022/08/04 13:06:53;;;;;;;2.00;1.90;;;32.60;36.60;;;;;;4918401;29;20195;-37
2022/08/04 13:09:24;;;;;;;2.40;2.20;;;32.60;35.40;;;;;;4888269;29;20064;-39
2022/08/04 13:12:08;;;;;;;2.25;2.05;;;32.50;34.60;;;;;;4903195;29;20039;-35
2022/08/04 13:14:51;;;;;;;6.05;2.40;;;32.50;34.90;;;;;;4901666;29;20111;-39
2022/08/04 13:17:23;;;;;;;2.22;2.03;;;32.40;34.00;;;;;;4915956;29;20016;-38
2022/08/04 13:19:55;;;;;;;2.00;1.80;;;32.40;33.30;;;;;;4925778;29;20040;-36
2022/08/04 13:22:33;;;;;;;1.80;1.70;;;32.40;35.20;;;;;;4920618;29;20031;-40
2022/08/04 13:24:59;;;;;;;2.38;1.80;;;32.50;33.50;;;;;;4927259;29;20039;-36
2022/08/04 13:27:28;;;;;;;2.03;1.90;;;32.40;33.60;;;;;;4938180;29;20040;-39
2022/08/04 13:29:59;;;;;;;1.90;1.80;;;32.50;34.20;;;;;;4936164;29;20031;-39
2022/08/04 13:33:10;;;;;;;1.95;1.85;;;32.50;34.60;;;;;;4904369;29;20132;-39
2022/08/04 13:35:50;;;;;;;1.95;1.85;;;32.60;34.40;;;;;;4936326;29;20043;-37
2022/08/04 13:38:22;;;;;;;2.10;1.90;;;32.50;35.40;;;;;;4911243;29;20044;-38
2022/08/04 13:41:14;;;;;;;2.53;1.98;;;32.50;36.60;;;;;;4936829;29;20028;-39
2022/08/04 13:43:53;;;;;;;2.45;1.80;;;32.60;36.80;;;;;;4937696;29;20341;-37
2022/08/04 13:46:27;;;;;;;1.98;1.80;;;32.60;35.40;;;;;;4937448;29;20394;-38
2022/08/04 13:48:57;;;;;;;2.17;1.98;;;32.70;35.90;;;;;;4919515;29;20114;-39
2022/08/04 13:51:29;;;;;;;2.20;2.00;;;32.70;35.90;;;;;;4930704;29;20044;-38
2022/08/04 13:54:20;;;;;;;1.70;1.60;;;32.80;34.70;;;;;;4934807;29;20040;-37
2022/08/04 13:56:52;;;;;;;1.75;1.65;;;32.80;34.70;;;;;;4935940;29;20075;-37
2022/08/04 13:59:29;;;;;;;1.85;1.75;;;32.90;35.70;;;;;;4931500;29;20028;-36
2022/08/04 14:02:07;;;;;;;2.10;2.00;;;32.90;34.00;;;;;;4936247;29;20035;-35
2022/08/04 14:04:39;;;;;;;3.80;2.00;;;32.80;32.80;;;;;;4918891;29;20135;-36
2022/08/04 14:07:23;;;;;;;2.25;2.05;;;32.80;34.50;;;;;;4937291;29;20678;-37
2022/08/04 14:09:50;;;;;;;1.88;1.55;;;32.80;33.30;;;;;;4933842;29;20071;-39